Time;durP1;ratioP1;P1;durP2;ratioP2;P2;SDS_P1;SDS_P2;PMS_P1;PMS_P2;Temp;Humidity;BMP_temperature;BMP_pressure;BME280_temperature;BME280_humidity;BME280_pressure;Samples;Min_cycle;Max_cycle;Signal;HPM_P1;HPM_P2
2021/12/07 00:01:24;;;;;;;3.42;2.10;;;21.50;49.30;;;;;;5023411;28;20060;-58
2021/12/07 00:03:51;;;;;;;4.30;2.88;;;21.50;49.30;;;;;;5028646;28;20116;-58
2021/12/07 00:06:17;;;;;;;3.47;2.03;;;21.50;49.30;;;;;;5025187;28;20021;-58
2021/12/07 00:08:44;;;;;;;4.93;2.10;;;21.50;49.30;;;;;;5023398;28;20048;-62
2021/12/07 00:11:10;;;;;;;3.30;1.98;;;21.50;49.30;;;;;;5026902;28;20084;-59
2021/12/07 00:13:38;;;;;;;3.10;2.10;;;21.40;49.30;;;;;;5028440;28;20067;-60
2021/12/07 00:16:08;;;;;;;3.13;1.90;;;21.40;49.40;;;;;;5026149;28;20129;-59
2021/12/07 00:18:35;;;;;;;3.28;1.80;;;21.40;49.40;;;;;;5024844;28;20543;-61
2021/12/07 00:21:01;;;;;;;2.53;1.75;;;21.40;49.40;;;;;;5026791;28;20060;-60
2021/12/07 00:23:27;;;;;;;3.30;1.80;;;21.40;49.40;;;;;;5029937;28;20116;-60
2021/12/07 00:25:53;;;;;;;4.05;1.88;;;21.40;49.40;;;;;;5023221;28;20132;-57
2021/12/07 00:28:21;;;;;;;4.35;2.00;;;21.40;49.40;;;;;;5024049;28;20037;-60
2021/12/07 00:30:48;;;;;;;3.08;1.77;;;21.30;49.40;;;;;;5025532;28;20057;-59
2021/12/07 00:35:42;;;;;;;3.58;2.00;;;21.30;49.90;;;;;;5024636;28;20041;-59
2021/12/07 00:38:19;;;;;;;2.58;1.67;;;21.30;49.40;;;;;;5024342;28;20644;-56
2021/12/07 00:40:46;;;;;;;2.88;1.90;;;21.30;49.50;;;;;;5024525;28;20339;-62
2021/12/07 00:43:13;;;;;;;2.70;1.85;;;21.30;49.50;;;;;;5024447;28;20075;-57
2021/12/07 00:45:42;;;;;;;3.10;1.92;;;21.30;49.50;;;;;;5027583;28;20037;-59
2021/12/07 00:48:08;;;;;;;3.72;1.90;;;21.20;49.40;;;;;;5025942;28;20118;-59
2021/12/07 00:50:36;;;;;;;3.47;1.83;;;21.20;49.50;;;;;;5027247;28;20037;-59
2021/12/07 00:53:05;;;;;;;3.00;1.70;;;21.20;49.50;;;;;;5027262;28;20095;-59
2021/12/07 00:55:34;;;;;;;3.42;1.77;;;21.20;49.50;;;;;;5024481;28;20060;-60
2021/12/07 00:58:00;;;;;;;3.20;2.03;;;21.20;49.50;;;;;;5025730;28;20342;-58
2021/12/07 01:00:29;;;;;;;3.08;1.92;;;21.20;49.50;;;;;;5022512;28;20322;-58
2021/12/07 01:02:55;;;;;;;4.00;2.00;;;21.10;49.50;;;;;;5025629;28;20068;-60
2021/12/07 01:05:28;;;;;;;3.10;1.80;;;21.10;49.50;;;;;;5022349;28;20801;-59
2021/12/07 01:08:16;;;;;;;2.85;1.80;;;21.10;49.50;;;;;;5025641;28;20561;-62
2021/12/07 01:24:41;;;;;;;2.95;1.77;;;21.00;49.60;;;;;;5022639;28;20119;-62
2021/12/07 01:27:09;;;;;;;3.28;1.85;;;21.00;49.60;;;;;;5026151;28;20470;-59
2021/12/07 01:29:36;;;;;;;2.70;1.90;;;21.00;49.60;;;;;;5023831;28;20043;-63
2021/12/07 01:32:25;;;;;;;2.95;1.83;;;21.00;49.60;;;;;;5024647;28;20104;-59
2021/12/07 01:38:05;;;;;;;2.72;1.90;;;21.00;49.70;;;;;;5024377;28;20159;-59
2021/12/07 01:59:50;;;;;;;3.05;1.80;;;20.90;49.70;;;;;;5008009;28;20072;-59
2021/12/07 02:02:18;;;;;;;3.05;1.90;;;20.80;49.70;;;;;;5001397;28;20139;-63
2021/12/07 02:04:45;;;;;;;2.83;1.83;;;20.80;49.70;;;;;;5011254;28;20033;-60
2021/12/07 02:07:12;;;;;;;2.78;1.80;;;20.80;49.70;;;;;;5028076;28;20026;-59
2021/12/07 02:09:41;;;;;;;2.80;1.77;;;20.80;49.80;;;;;;5023831;28;20036;-59
2021/12/07 02:12:08;;;;;;;2.55;1.63;;;20.80;49.70;;;;;;5022920;28;20041;-59
2021/12/07 02:14:34;;;;;;;3.03;1.92;;;20.80;49.70;;;;;;5022941;28;20482;-62
2021/12/07 02:17:05;;;;;;;2.78;1.80;;;20.80;49.70;;;;;;5024184;28;20036;-59
2021/12/07 02:19:31;;;;;;;2.90;1.98;;;20.80;49.80;;;;;;5025823;28;20738;-59
2021/12/07 02:21:58;;;;;;;3.65;1.90;;;20.80;49.80;;;;;;5020729;28;20125;-60
2021/12/07 02:24:25;;;;;;;2.38;1.65;;;20.80;49.80;;;;;;5023779;28;20032;-58
2021/12/07 02:26:51;;;;;;;2.67;1.75;;;20.80;49.80;;;;;;5023587;28;20026;-61
2021/12/07 02:29:18;;;;;;;2.60;1.80;;;20.70;49.80;;;;;;5024590;28;20056;-62
2021/12/07 02:31:44;;;;;;;3.10;2.10;;;20.70;49.80;;;;;;5025939;28;20033;-62
2021/12/07 02:34:10;;;;;;;2.75;1.98;;;20.70;49.80;;;;;;5023023;28;20029;-62
2021/12/07 02:36:36;;;;;;;2.40;1.73;;;20.70;49.80;;;;;;5024420;28;20030;-60
2021/12/07 02:39:04;;;;;;;2.60;1.70;;;20.70;49.90;;;;;;5020057;28;20031;-59
2021/12/07 02:41:30;;;;;;;3.25;1.90;;;20.70;49.80;;;;;;5026407;28;20033;-60
2021/12/07 02:43:56;;;;;;;3.25;1.65;;;20.70;49.90;;;;;;5031030;28;20558;-62
2021/12/07 02:46:21;;;;;;;3.50;2.00;;;20.70;49.90;;;;;;5029346;28;20366;-62
2021/12/07 02:48:47;;;;;;;2.67;1.70;;;20.70;49.90;;;;;;5028558;28;20042;-59
2021/12/07 02:51:13;;;;;;;3.92;2.00;;;20.60;49.90;;;;;;5032774;28;20725;-58
2021/12/07 02:53:39;;;;;;;2.67;1.77;;;20.60;49.90;;;;;;5028221;28;20036;-59
2021/12/07 02:56:07;;;;;;;2.70;1.65;;;20.60;50.40;;;;;;5031162;28;20041;-59
2021/12/07 02:58:35;;;;;;;2.50;1.60;;;20.60;49.90;;;;;;5028358;28;20042;-59
2021/12/07 03:01:09;;;;;;;2.72;1.55;;;20.60;49.90;;;;;;5024654;28;20047;-59
2021/12/07 03:03:42;;;;;;;3.20;1.60;;;20.60;49.90;;;;;;5028517;28;20037;-63
2021/12/07 03:06:19;;;;;;;2.72;1.80;;;20.60;50.00;;;;;;5027467;28;20026;-59
2021/12/07 03:27:54;;;;;;;2.65;1.73;;;20.50;50.00;;;;;;5025220;28;20056;-62
2021/12/07 03:30:21;;;;;;;2.28;1.60;;;20.50;50.00;;;;;;5023228;28;20104;-60
2021/12/07 03:32:47;;;;;;;2.85;1.48;;;20.50;50.10;;;;;;5028674;28;20029;-59
2021/12/07 03:35:13;;;;;;;2.72;1.70;;;20.50;50.10;;;;;;5026809;28;20032;-58
2021/12/07 03:37:39;;;;;;;2.50;1.60;;;20.50;50.10;;;;;;5027846;28;20491;-62
2021/12/07 03:40:05;;;;;;;2.40;1.50;;;20.50;50.10;;;;;;5024996;28;20026;-60
2021/12/07 03:42:31;;;;;;;2.33;1.60;;;20.50;50.10;;;;;;5026296;28;20129;-59
2021/12/07 03:44:57;;;;;;;2.72;1.60;;;20.50;50.20;;;;;;5026035;28;20137;-62
2021/12/07 03:47:23;;;;;;;2.65;1.55;;;20.50;50.20;;;;;;5028895;28;20124;-58
2021/12/07 03:49:48;;;;;;;2.70;1.70;;;20.50;50.20;;;;;;5029003;28;20037;-59
2021/12/07 03:52:14;;;;;;;2.45;1.50;;;20.40;50.10;;;;;;5026913;28;20662;-59
2021/12/07 03:54:40;;;;;;;2.00;1.42;;;20.40;50.10;;;;;;5023350;28;20071;-60
2021/12/07 03:57:05;;;;;;;2.30;1.52;;;20.40;50.10;;;;;;5026282;28;20034;-62
2021/12/07 03:59:31;;;;;;;2.35;1.55;;;20.40;50.10;;;;;;5028288;28;20040;-58
2021/12/07 04:01:56;;;;;;;2.42;1.50;;;20.40;50.20;;;;;;5027954;28;20116;-59
2021/12/07 04:04:22;;;;;;;2.40;1.60;;;20.40;50.20;;;;;;5028455;28;20083;-60
2021/12/07 04:06:48;;;;;;;2.45;1.50;;;20.40;50.20;;;;;;5026300;28;20665;-62
2021/12/07 04:09:13;;;;;;;2.20;1.50;;;20.40;50.20;;;;;;5025929;28;20037;-58
2021/12/07 04:11:39;;;;;;;2.70;1.80;;;20.40;50.20;;;;;;5026678;28;20037;-61
2021/12/07 04:14:06;;;;;;;2.50;1.58;;;20.40;50.30;;;;;;5027597;28;20140;-59
2021/12/07 04:16:33;;;;;;;2.15;1.50;;;20.40;50.20;;;;;;5027133;28;20033;-59
2021/12/07 04:18:59;;;;;;;1.92;1.40;;;20.40;50.80;;;;;;5029014;28;20033;-62
2021/12/07 04:21:25;;;;;;;1.80;1.27;;;20.30;50.20;;;;;;5024904;28;20129;-59
2021/12/07 04:23:51;;;;;;;2.15;1.60;;;20.40;50.30;;;;;;5023478;28;20559;-59
2021/12/07 04:26:17;;;;;;;2.30;1.48;;;20.30;50.20;;;;;;5020188;28;20034;-62
2021/12/07 04:28:43;;;;;;;2.30;1.50;;;20.40;50.30;;;;;;5022864;28;22135;-62
2021/12/07 04:31:10;;;;;;;2.58;1.58;;;20.30;50.30;;;;;;5027019;28;20145;-62
2021/12/07 04:33:36;;;;;;;3.17;1.60;;;20.30;50.30;;;;;;5022697;28;20041;-60
2021/12/07 04:36:02;;;;;;;2.88;1.70;;;20.30;50.30;;;;;;5026424;28;20401;-60
2021/12/07 04:38:28;;;;;;;2.50;1.30;;;20.30;50.30;;;;;;5020787;28;20811;-62
2021/12/07 04:40:54;;;;;;;2.25;1.38;;;20.30;50.40;;;;;;5023531;28;20167;-60
2021/12/07 04:43:20;;;;;;;2.28;1.50;;;20.30;50.40;;;;;;5020128;28;20033;-59
2021/12/07 04:59:02;;;;;;;1.80;1.20;;;20.30;50.50;;;;;;5022117;28;20095;-60
2021/12/07 05:01:27;;;;;;;1.90;1.20;;;20.20;51.00;;;;;;5024443;28;20130;-59
2021/12/07 05:03:56;;;;;;;1.60;1.17;;;20.30;50.50;;;;;;5023954;28;20077;-58
2021/12/07 05:06:29;;;;;;;2.03;1.30;;;20.20;50.50;;;;;;5025347;28;20042;-61
2021/12/07 05:09:00;;;;;;;1.70;1.20;;;20.30;50.60;;;;;;5024191;28;20040;-61
2021/12/07 05:11:44;;;;;;;2.35;1.27;;;20.20;50.50;;;;;;5020309;28;20401;-59
2021/12/07 05:14:24;;;;;;;1.88;1.10;;;20.20;50.50;;;;;;5018524;28;20029;-60
2021/12/07 05:17:16;;;;;;;2.00;1.30;;;20.20;50.50;;;;;;5019422;28;20563;-62
2021/12/07 05:38:45;;;;;;;2.15;1.30;;;20.20;50.60;;;;;;5021141;28;20115;-59
2021/12/07 05:41:11;;;;;;;1.60;1.20;;;20.20;50.60;;;;;;5019813;28;20115;-60
2021/12/07 05:43:37;;;;;;;1.52;1.15;;;20.20;50.60;;;;;;5022612;28;20029;-60
2021/12/07 05:46:03;;;;;;;2.50;1.50;;;20.20;50.70;;;;;;5020408;28;20112;-60
2021/12/07 05:48:29;;;;;;;1.80;1.10;;;20.20;50.70;;;;;;5024257;28;20041;-59
2021/12/07 05:50:55;;;;;;;1.63;1.10;;;20.20;50.70;;;;;;5024108;28;20402;-59
2021/12/07 05:53:21;;;;;;;2.97;1.40;;;20.20;50.70;;;;;;5020797;28;20038;-59
2021/12/07 05:55:47;;;;;;;2.20;1.20;;;20.10;50.70;;;;;;5024285;28;20036;-59
2021/12/07 05:58:13;;;;;;;2.03;1.20;;;20.20;50.80;;;;;;5021017;28;20673;-58
2021/12/07 06:00:42;;;;;;;1.75;1.17;;;20.20;50.80;;;;;;5027271;28;20120;-60
2021/12/07 06:03:09;;;;;;;;;;;20.10;50.70;;;;;;5023818;28;20087;-60
2021/12/07 06:05:36;;;;;;;1.75;1.10;;;20.10;50.80;;;;;;5021650;28;19913;-61
2021/12/07 06:08:01;;;;;;;1.60;1.10;;;20.10;50.80;;;;;;5021309;28;20030;-60
2021/12/07 06:10:28;;;;;;;1.55;1.02;;;20.10;50.80;;;;;;5022186;28;20093;-62
2021/12/07 06:12:54;;;;;;;1.63;1.00;;;20.10;50.80;;;;;;5022347;28;20040;-60
2021/12/07 06:15:22;;;;;;;1.85;1.00;;;20.10;50.80;;;;;;5024541;28;20518;-60
2021/12/07 06:17:49;;;;;;;1.83;1.00;;;20.20;51.30;;;;;;5026041;28;20783;-60
2021/12/07 06:20:15;;;;;;;1.58;1.00;;;20.40;51.90;;;;;;5031100;28;20471;-61
2021/12/07 06:22:41;;;;;;;1.33;0.90;;;20.60;51.90;;;;;;5028446;28;20022;-60
2021/12/07 06:25:07;;;;;;;2.42;1.05;;;20.80;51.90;;;;;;5027639;28;20091;-60
2021/12/07 06:27:33;;;;;;;1.60;0.90;;;21.10;52.20;;;;;;5025178;28;20057;-62
2021/12/07 06:29:59;;;;;;;1.70;1.20;;;21.40;51.80;;;;;;5025512;28;20022;-60
2021/12/07 06:32:25;;;;;;;1.50;1.00;;;21.70;51.80;;;;;;5028273;28;20040;-60
2021/12/07 06:34:51;;;;;;;1.88;1.10;;;22.00;51.20;;;;;;5027882;28;20033;-60
2021/12/07 06:37:17;;;;;;;1.88;1.13;;;22.30;50.90;;;;;;5022477;28;20025;-60
2021/12/07 06:39:42;;;;;;;2.33;1.23;;;22.40;51.20;;;;;;5027133;28;20460;-61
2021/12/07 06:42:08;;;;;;;1.50;1.02;;;22.60;50.40;;;;;;5027483;28;20026;-63
2021/12/07 06:44:34;;;;;;;1.65;1.00;;;22.70;50.40;;;;;;5031120;28;20049;-62
2021/12/07 06:46:59;;;;;;;1.23;1.00;;;22.90;50.10;;;;;;5027058;28;20044;-60
2021/12/07 06:49:26;;;;;;;1.70;1.02;;;23.10;50.10;;;;;;5031125;28;20572;-60
2021/12/07 06:51:51;;;;;;;1.73;1.00;;;23.20;50.20;;;;;;5027618;28;20044;-61
2021/12/07 06:54:17;;;;;;;2.42;1.20;;;23.30;50.00;;;;;;5025583;28;20034;-63
2021/12/07 06:56:44;;;;;;;1.00;0.82;;;23.40;49.80;;;;;;5021586;28;20481;-61
2021/12/07 06:59:09;;;;;;;2.53;1.13;;;23.60;49.80;;;;;;5027092;28;20022;-60
2021/12/07 07:01:36;;;;;;;1.13;0.90;;;23.70;49.60;;;;;;5026643;28;20044;-62
2021/12/07 07:04:01;;;;;;;1.25;0.93;;;23.90;49.30;;;;;;5031102;28;20047;-61
2021/12/07 07:06:27;;;;;;;2.28;1.00;;;24.10;49.10;;;;;;5025546;28;20033;-63
2021/12/07 07:08:53;;;;;;;1.20;0.80;;;24.30;48.80;;;;;;5026387;28;20100;-61
2021/12/07 07:11:19;;;;;;;1.05;0.82;;;24.40;48.50;;;;;;5026838;28;20021;-63
2021/12/07 07:13:46;;;;;;;1.02;0.70;;;24.30;48.50;;;;;;5023445;28;20096;-60
2021/12/07 07:16:12;;;;;;;0.65;0.63;;;24.10;48.60;;;;;;5026105;28;20045;-59
2021/12/07 07:18:38;;;;;;;1.05;0.80;;;24.00;48.80;;;;;;5026721;28;20350;-61
2021/12/07 07:21:04;;;;;;;0.60;0.55;;;23.90;49.00;;;;;;5027484;28;20036;-62
2021/12/07 07:23:30;;;;;;;1.33;0.80;;;23.90;49.20;;;;;;5024196;28;20084;-61
2021/12/07 07:25:56;;;;;;;0.70;0.60;;;23.90;49.20;;;;;;5022733;28;20068;-61
2021/12/07 07:28:24;;;;;;;0.70;0.70;;;23.80;49.20;;;;;;5027876;28;20037;-60
2021/12/07 07:30:49;;;;;;;0.70;0.60;;;23.80;49.40;;;;;;5025720;28;20049;-61
2021/12/07 07:33:16;;;;;;;2.20;0.60;;;23.80;49.70;;;;;;5027104;28;20427;-64
2021/12/07 07:35:42;;;;;;;0.93;0.70;;;23.80;50.10;;;;;;5026491;28;20081;-62
2021/12/07 07:38:08;;;;;;;0.80;0.60;;;23.80;50.10;;;;;;5027325;28;20712;-62
2021/12/07 07:40:33;;;;;;;0.80;0.80;;;23.80;50.30;;;;;;5024583;28;20022;-61
2021/12/07 07:42:59;;;;;;;0.80;0.68;;;23.80;50.70;;;;;;5024996;28;20064;-64
2021/12/07 07:45:25;;;;;;;0.93;0.68;;;23.90;50.40;;;;;;5028503;28;20053;-60
2021/12/07 07:47:51;;;;;;;0.68;0.57;;;23.90;50.40;;;;;;5025506;28;20105;-62
2021/12/07 07:50:17;;;;;;;0.68;0.68;;;23.80;50.30;;;;;;5027330;28;20037;-60
2021/12/07 07:52:43;;;;;;;0.98;0.70;;;23.80;50.50;;;;;;5028511;28;20033;-61
2021/12/07 07:55:10;;;;;;;0.73;0.65;;;23.90;50.60;;;;;;5023599;28;20105;-61
2021/12/07 07:57:36;;;;;;;0.88;0.80;;;23.90;50.70;;;;;;5026182;28;20018;-59
2021/12/07 08:00:02;;;;;;;0.85;0.70;;;23.90;51.40;;;;;;5029467;28;20051;-61
2021/12/07 08:02:28;;;;;;;0.60;0.52;;;23.90;51.60;;;;;;5027450;28;20041;-62
2021/12/07 08:04:53;;;;;;;1.13;0.60;;;23.90;51.60;;;;;;5027659;28;20037;-61
2021/12/07 08:07:19;;;;;;;0.75;0.68;;;23.90;51.50;;;;;;5027503;28;20479;-61
2021/12/07 08:09:45;;;;;;;0.90;0.60;;;23.90;51.60;;;;;;5024563;28;20040;-60
2021/12/07 08:12:10;;;;;;;0.75;0.63;;;23.90;51.30;;;;;;5026751;28;20032;-61
2021/12/07 08:14:36;;;;;;;0.68;0.50;;;23.90;51.30;;;;;;5029742;28;20116;-62
2021/12/07 08:17:03;;;;;;;0.65;0.50;;;23.90;51.30;;;;;;5021657;28;20222;-61
2021/12/07 08:19:29;;;;;;;0.68;0.60;;;23.90;51.20;;;;;;5026398;28;20444;-60
2021/12/07 08:21:54;;;;;;;0.50;0.50;;;23.90;51.70;;;;;;5026010;28;20029;-61
2021/12/07 08:24:20;;;;;;;0.55;0.55;;;23.90;51.50;;;;;;5022613;28;20171;-61
2021/12/07 08:26:45;;;;;;;1.02;0.70;;;23.90;51.30;;;;;;5028147;28;20052;-59
2021/12/07 08:29:11;;;;;;;0.63;0.55;;;23.90;52.40;;;;;;5021611;28;20060;-60
2021/12/07 08:31:37;;;;;;;0.70;0.60;;;23.90;51.80;;;;;;5024474;28;20413;-61
2021/12/07 08:34:03;;;;;;;1.00;0.60;;;23.90;51.90;;;;;;5025877;28;20774;-61
2021/12/07 08:36:29;;;;;;;0.90;0.63;;;23.90;52.50;;;;;;5026856;28;20521;-60
2021/12/07 08:38:56;;;;;;;1.58;0.90;;;24.00;52.30;;;;;;5025910;28;20021;-62
2021/12/07 08:41:21;;;;;;;1.02;0.80;;;24.00;48.90;;;;;;5024078;28;20031;-60
2021/12/07 08:43:47;;;;;;;2.20;0.90;;;23.90;47.50;;;;;;5023956;28;20381;-60
2021/12/07 08:46:15;;;;;;;1.42;0.95;;;23.80;47.10;;;;;;5025704;28;20681;-60
2021/12/07 08:48:42;;;;;;;1.58;0.90;;;23.80;46.70;;;;;;5023248;28;20026;-62
2021/12/07 08:51:09;;;;;;;1.35;0.98;;;23.70;46.20;;;;;;5027822;28;20087;-64
2021/12/07 08:53:40;;;;;;;1.52;0.93;;;23.70;47.00;;;;;;5022955;28;20041;-61
2021/12/07 09:01:34;;;;;;;1.92;1.00;;;23.60;46.30;;;;;;5023330;28;20047;-62
2021/12/07 09:04:01;;;;;;;1.92;1.00;;;23.60;46.40;;;;;;5026190;28;20030;-63
2021/12/07 09:06:28;;;;;;;1.80;1.10;;;23.60;46.20;;;;;;5026695;28;20041;-61
2021/12/07 09:08:54;;;;;;;1.02;0.90;;;23.50;46.00;;;;;;5019188;28;20591;-61
2021/12/07 09:11:20;;;;;;;1.23;0.88;;;23.50;46.20;;;;;;5025478;28;20106;-59
2021/12/07 09:13:46;;;;;;;1.58;0.93;;;23.50;46.10;;;;;;5024012;28;20037;-60
2021/12/07 09:16:15;;;;;;;1.35;1.00;;;23.50;46.10;;;;;;5024188;28;20068;-61
2021/12/07 09:18:42;;;;;;;1.42;1.02;;;23.50;46.20;;;;;;5025862;28;20025;-60
2021/12/07 09:21:09;;;;;;;1.45;0.90;;;23.40;46.20;;;;;;5027787;28;20117;-60
2021/12/07 09:23:35;;;;;;;1.75;0.95;;;23.40;46.30;;;;;;5029833;28;20587;-59
2021/12/07 09:26:02;;;;;;;1.40;1.05;;;23.40;46.20;;;;;;5019027;28;20038;-60
2021/12/07 09:28:28;;;;;;;1.50;0.98;;;23.40;46.40;;;;;;5022353;28;20061;-61
2021/12/07 09:30:53;;;;;;;1.30;0.80;;;23.40;46.40;;;;;;5019569;28;20096;-62
2021/12/07 09:33:22;;;;;;;1.52;1.00;;;23.40;46.30;;;;;;5025669;28;20766;-60
2021/12/07 09:35:48;;;;;;;1.10;0.80;;;23.30;46.90;;;;;;5022824;28;20041;-63
2021/12/07 09:38:14;;;;;;;1.63;0.88;;;23.30;46.40;;;;;;5025503;28;20029;-60
2021/12/07 09:40:42;;;;;;;1.20;0.88;;;23.30;46.40;;;;;;5023892;28;20069;-62
2021/12/07 09:43:08;;;;;;;1.80;0.95;;;23.20;46.50;;;;;;5026236;28;20718;-61
2021/12/07 09:45:35;;;;;;;1.13;0.80;;;23.20;46.50;;;;;;5022269;28;20033;-63
2021/12/07 09:48:03;;;;;;;1.05;0.90;;;23.20;46.50;;;;;;5024554;28;20056;-60
2021/12/07 09:50:29;;;;;;;1.05;0.80;;;23.20;46.50;;;;;;5021864;28;20052;-60
2021/12/07 09:52:56;;;;;;;1.30;0.90;;;23.20;46.50;;;;;;5023732;28;20540;-59
2021/12/07 09:55:21;;;;;;;1.13;0.80;;;23.20;46.50;;;;;;5018171;28;20592;-62
2021/12/07 09:57:48;;;;;;;1.58;0.85;;;23.10;46.60;;;;;;5019236;28;20030;-60
2021/12/07 10:00:20;;;;;;;1.48;0.80;;;23.20;46.50;;;;;;5026195;28;20028;-63
2021/12/07 10:02:46;;;;;;;1.08;0.90;;;23.20;46.50;;;;;;5015851;28;20041;-60
2021/12/07 10:05:14;;;;;;;1.33;0.95;;;23.10;46.60;;;;;;5024049;28;20474;-61
2021/12/07 10:07:39;;;;;;;1.80;0.90;;;23.10;46.60;;;;;;5023917;28;20902;-62
2021/12/07 10:10:16;;;;;;;1.65;1.00;;;23.10;46.50;;;;;;5019921;28;20036;-58
2021/12/07 10:12:42;;;;;;;1.15;0.90;;;23.10;46.40;;;;;;5021333;28;20491;-63
2021/12/07 10:15:08;;;;;;;1.90;0.82;;;23.10;46.40;;;;;;5018019;28;20045;-60
2021/12/07 10:17:37;;;;;;;1.08;0.90;;;23.10;46.70;;;;;;5021964;28;20112;-61
2021/12/07 10:20:22;;;;;;;;;;;23.10;46.60;;;;;;5023661;28;20416;-62
2021/12/07 10:22:51;;;;;;;1.10;0.80;;;23.00;46.80;;;;;;5020286;28;19986;-60
2021/12/07 10:25:29;;;;;;;1.20;0.90;;;23.00;46.80;;;;;;5022205;28;20039;-63
2021/12/07 10:27:56;;;;;;;1.20;0.90;;;22.90;46.80;;;;;;5016503;28;20474;-59
2021/12/07 10:30:23;;;;;;;1.10;0.85;;;22.90;47.50;;;;;;5016811;28;22174;-60
2021/12/07 10:33:04;;;;;;;1.35;0.90;;;22.90;47.20;;;;;;5017222;28;20022;-59
2021/12/07 10:35:36;;;;;;;1.08;0.70;;;22.90;47.20;;;;;;5021681;28;20026;-59
2021/12/07 10:38:16;;;;;;;1.58;0.80;;;22.90;47.20;;;;;;5023601;28;20052;-62
2021/12/07 10:41:03;;;;;;;0.70;0.70;;;22.90;47.40;;;;;;5019259;28;20025;-62
2021/12/07 10:43:59;;;;;;;1.25;0.80;;;22.90;48.10;;;;;;5022285;28;20029;-59
2021/12/07 10:46:31;;;;;;;0.80;0.70;;;22.90;48.40;;;;;;5023818;28;20193;-61
2021/12/07 10:49:11;;;;;;;1.42;0.80;;;23.00;49.00;;;;;;5020805;28;20729;-62
2021/12/07 10:51:38;;;;;;;1.63;0.90;;;23.00;47.80;;;;;;5020935;28;20033;-59
2021/12/07 10:54:04;;;;;;;1.40;0.90;;;23.00;46.20;;;;;;5022073;28;20051;-62
2021/12/07 10:56:30;;;;;;;1.75;0.95;;;23.00;44.90;;;;;;5019916;28;20055;-61
2021/12/07 10:59:14;;;;;;;2.45;1.20;;;23.00;44.10;;;;;;5025302;28;20075;-62
2021/12/07 11:01:42;;;;;;;1.75;0.98;;;23.00;43.90;;;;;;5021586;28;20091;-60
2021/12/07 11:04:23;;;;;;;2.22;1.20;;;22.90;43.40;;;;;;5026369;28;20021;-62
2021/12/07 11:07:07;;;;;;;2.08;1.08;;;22.90;43.80;;;;;;5025213;28;20033;-61
2021/12/07 11:10:07;;;;;;;1.73;1.10;;;22.90;43.00;;;;;;5026607;28;20154;-62
2021/12/07 11:12:48;;;;;;;1.30;1.00;;;22.80;43.30;;;;;;5021844;28;20098;-59
2021/12/07 11:15:20;;;;;;;4.25;1.73;;;22.80;43.30;;;;;;5025383;28;20095;-61
2021/12/07 11:17:46;;;;;;;4.90;3.40;;;22.80;43.30;;;;;;5024437;28;20859;-63
2021/12/07 11:20:12;;;;;;;4.53;3.38;;;22.80;42.70;;;;;;5025628;28;20120;-61
2021/12/07 11:22:42;;;;;;;7.20;5.63;;;22.80;41.90;;;;;;5021385;28;20045;-62
2021/12/07 11:25:09;;;;;;;10.90;8.50;;;22.80;41.60;;;;;;5017472;28;20064;-59
2021/12/07 11:30:29;;;;;;;11.50;9.98;;;22.70;41.20;;;;;;5022291;28;20159;-59
2021/12/07 11:32:57;;;;;;;11.00;9.25;;;22.70;40.80;;;;;;5014929;28;20033;-62
2021/12/07 11:35:27;;;;;;;9.55;8.15;;;22.70;41.30;;;;;;5019027;28;20116;-63
2021/12/07 11:37:55;;;;;;;7.78;6.80;;;22.70;41.30;;;;;;5024265;28;20029;-62
2021/12/07 11:40:34;;;;;;;6.70;6.00;;;22.70;41.60;;;;;;5014425;28;20013;-61
2021/12/07 11:43:00;;;;;;;7.00;5.65;;;22.70;41.30;;;;;;5025373;28;20367;-62
2021/12/07 11:45:31;;;;;;;5.63;4.75;;;22.70;41.30;;;;;;5023871;28;20033;-62
2021/12/07 11:47:58;;;;;;;5.93;4.95;;;22.70;40.60;;;;;;5025720;28;20581;-62
2021/12/07 11:50:38;;;;;;;5.22;4.53;;;22.60;41.00;;;;;;5027761;28;20026;-59
2021/12/07 11:53:07;;;;;;;4.88;3.55;;;22.60;40.40;;;;;;5023997;28;20029;-60
2021/12/07 11:55:35;;;;;;;4.00;3.00;;;22.60;40.40;;;;;;5023287;28;20186;-59
2021/12/07 11:58:03;;;;;;;3.22;2.38;;;22.60;42.30;;;;;;5023102;28;20025;-59
2021/12/07 12:00:35;;;;;;;3.47;1.50;;;22.60;44.00;;;;;;5026236;28;20086;-62
2021/12/07 12:03:04;;;;;;;2.10;1.38;;;22.50;44.70;;;;;;5023020;28;20022;-60
2021/12/07 12:05:30;;;;;;;2.15;1.30;;;22.50;45.10;;;;;;5021454;28;20022;-59
2021/12/07 12:07:56;;;;;;;2.58;1.30;;;22.50;45.30;;;;;;5023860;28;20075;-60
2021/12/07 12:10:22;;;;;;;2.63;1.45;;;22.50;45.40;;;;;;5020812;28;20083;-62
2021/12/07 12:13:33;;;;;;;2.00;1.20;;;22.50;45.60;;;;;;5022563;28;20895;-61
2021/12/07 12:16:08;;;;;;;1.65;1.05;;;22.50;45.70;;;;;;5023001;28;20095;-62
2021/12/07 12:18:58;;;;;;;1.90;1.10;;;22.50;45.80;;;;;;5020351;28;20029;-62
2021/12/07 12:21:33;;;;;;;1.48;1.10;;;22.50;46.10;;;;;;5018301;28;20034;-60
2021/12/07 12:24:08;;;;;;;1.10;0.90;;;22.50;46.20;;;;;;5020678;28;20045;-61
2021/12/07 12:26:36;;;;;;;1.80;1.30;;;22.60;46.50;;;;;;5020708;28;20078;-58
2021/12/07 12:29:16;;;;;;;1.65;1.00;;;22.60;46.80;;;;;;5020785;28;20082;-59
2021/12/07 12:31:58;;;;;;;1.85;0.85;;;22.60;46.90;;;;;;5025398;28;20561;-61
2021/12/07 12:34:26;;;;;;;1.67;1.00;;;22.60;47.40;;;;;;5022694;28;20103;-61
2021/12/07 12:37:04;;;;;;;1.45;1.00;;;22.70;47.40;;;;;;5021819;28;21043;-62
2021/12/07 12:39:51;;;;;;;1.47;0.97;;;22.70;47.50;;;;;;5020925;28;20580;-63
2021/12/07 12:42:42;;;;;;;1.30;1.00;;;22.70;47.80;;;;;;5020539;28;20024;-61
2021/12/07 12:45:29;;;;;;;1.42;1.00;;;22.80;48.20;;;;;;5020151;28;20084;-60
2021/12/07 12:48:21;;;;;;;1.50;1.02;;;22.80;48.50;;;;;;5020522;28;20576;-62
2021/12/07 12:50:51;;;;;;;1.60;1.08;;;22.80;48.80;;;;;;5019410;28;20147;-59
2021/12/07 12:53:26;;;;;;;1.92;0.90;;;22.90;49.00;;;;;;5027702;28;20494;-61
2021/12/07 12:55:53;;;;;;;1.23;0.90;;;22.90;49.20;;;;;;5020736;28;20036;-62
2021/12/07 12:58:38;;;;;;;1.30;0.80;;;22.90;49.00;;;;;;5022445;28;20031;-62
2021/12/07 13:01:17;;;;;;;1.40;0.93;;;22.90;49.80;;;;;;5023015;28;20044;-60
2021/12/07 13:03:53;;;;;;;1.10;0.90;;;23.00;50.00;;;;;;5026116;28;20486;-60
2021/12/07 13:06:24;;;;;;;1.05;0.80;;;23.00;49.50;;;;;;5022953;28;20119;-61
2021/12/07 13:09:00;;;;;;;1.40;0.80;;;23.10;49.90;;;;;;5019813;28;20029;-62
2021/12/07 13:11:37;;;;;;;0.88;0.80;;;23.10;51.10;;;;;;5021194;28;20558;-62
2021/12/07 13:14:06;;;;;;;3.35;1.08;;;23.10;51.30;;;;;;5019799;28;20026;-61
2021/12/07 13:16:33;;;;;;;13.90;5.60;;;23.20;51.60;;;;;;5019027;28;20104;-60
2021/12/07 13:19:03;;;;;;;11.02;4.60;;;23.20;51.90;;;;;;5020873;28;20021;-59
2021/12/07 13:21:32;;;;;;;10.93;4.07;;;23.20;51.60;;;;;;5018799;28;20735;-60
2021/12/07 13:24:07;;;;;;;10.23;4.40;;;23.30;51.40;;;;;;5022313;28;20137;-60
2021/12/07 13:26:35;;;;;;;10.40;4.25;;;23.20;51.00;;;;;;5017520;28;20060;-60
2021/12/07 13:29:17;;;;;;;11.05;4.38;;;23.30;51.40;;;;;;5025210;28;20248;-59
2021/12/07 13:31:51;;;;;;;10.55;4.22;;;23.30;51.10;;;;;;5021249;28;20056;-63
2021/12/07 13:34:32;;;;;;;9.93;4.15;;;23.30;51.40;;;;;;5024885;28;20183;-61
2021/12/07 13:37:00;;;;;;;9.75;4.03;;;23.30;51.60;;;;;;5016126;28;20033;-61
2021/12/07 13:39:25;;;;;;;12.82;3.88;;;23.30;51.20;;;;;;5026552;28;20025;-60
2021/12/07 13:42:05;;;;;;;10.05;3.90;;;23.40;51.30;;;;;;5020323;28;20021;-61
2021/12/07 13:44:34;;;;;;;9.52;3.65;;;23.40;51.70;;;;;;5022181;28;20029;-61
2021/12/07 13:47:11;;;;;;;10.13;3.97;;;23.40;52.00;;;;;;5021881;28;20061;-61
2021/12/07 13:49:42;;;;;;;10.88;4.15;;;23.50;52.30;;;;;;5037973;28;20053;-61
2021/12/07 13:52:14;;;;;;;9.90;4.00;;;23.50;51.60;;;;;;5031516;28;20099;-60
2021/12/07 13:54:46;;;;;;;8.50;3.35;;;23.50;49.50;;;;;;5023392;28;20037;-61
2021/12/07 13:57:15;;;;;;;7.63;3.53;;;23.40;47.70;;;;;;5028755;28;20021;-59
2021/12/07 13:59:40;;;;;;;5.75;2.75;;;23.40;48.40;;;;;;5021825;28;20048;-60
2021/12/07 14:02:06;;;;;;;5.80;2.50;;;23.40;47.10;;;;;;5024524;28;20529;-59
2021/12/07 14:04:32;;;;;;;5.22;2.00;;;23.30;46.30;;;;;;5022208;28;20065;-60
2021/12/07 14:06:59;;;;;;;5.40;2.55;;;23.30;47.00;;;;;;5026709;28;20041;-61
2021/12/07 14:09:25;;;;;;;5.43;2.30;;;23.40;48.00;;;;;;5017768;28;20037;-61
2021/12/07 14:11:57;;;;;;;6.15;2.30;;;23.40;45.90;;;;;;5024529;28;20044;-59
2021/12/07 14:14:24;;;;;;;4.47;2.10;;;23.40;45.80;;;;;;5022088;28;20152;-60
2021/12/07 14:16:53;;;;;;;5.25;3.10;;;23.40;45.70;;;;;;5019580;28;20026;-63
2021/12/07 14:19:19;;;;;;;6.20;3.50;;;23.40;45.10;;;;;;5020074;28;20060;-61
2021/12/07 14:21:46;;;;;;;5.93;3.60;;;23.30;44.30;;;;;;5021091;28;20577;-60
2021/12/07 14:24:18;;;;;;;5.65;3.33;;;23.30;43.90;;;;;;5022619;28;20037;-61
2021/12/07 14:26:43;;;;;;;4.53;2.70;;;23.30;43.50;;;;;;5017913;28;20088;-60
2021/12/07 14:29:20;;;;;;;3.72;2.45;;;23.30;42.60;;;;;;5021979;28;20693;-61
2021/12/07 14:31:52;;;;;;;5.10;2.40;;;23.20;42.40;;;;;;5016489;28;20033;-61
2021/12/07 14:34:25;;;;;;;3.75;2.10;;;23.20;42.10;;;;;;5024211;28;20073;-58
2021/12/07 14:36:58;;;;;;;3.42;2.08;;;23.20;42.90;;;;;;5023332;28;20072;-60